Date,TemperatureHighF,TemperatureAvgF,TemperatureLowF,DewpointHighF,DewpointAvgF,DewpointLowF,HumidityHigh,HumidityAvg,HumidityLow,PressureMaxIn,PressureMinIn,WindSpeedMaxMPH,WindSpeedAvgMPH,GustSpeedMaxMPH,PrecipitationSumIn
2013-1-1,36,31,20,26,19,8,71,60,50,29.93,29.71,19,3,19,0.00
2013-1-2,30,21,13,17,10,0,72,62,56,30.11,29.89,17,2,17,0.00
2013-1-3,24,15,7,8,2,-4,70,57,44,30.14,29.99,9,1,9,0.00
2013-1-4,39,27,14,24,18,7,81,68,55,29.99,29.80,16,1,16,0.02
2013-1-5,41,32,24,26,21,17,74,65,48,30.26,29.84,11,1,11,0.00
2013-1-6,42,32,24,30,24,17,81,73,60,30.23,29.93,9,1,9,0.00
2013-1-7,39,32,24,28,22,18,83,70,54,30.40,29.95,9,1,9,0.00
2013-1-8,46,33,23,31,25,18,85,73,55,30.37,30.25,16,1,16,0.00
2013-1-9,42,34,25,34,28,21,84,77,64,30.40,29.98,9,0,9,0.00
2013-1-10,47,41,34,29,25,22,64,54,46,30.53,30.03,16,3,16,0.00
2013-1-11,41,36,28,34,28,21,86,73,64,30.52,30.22,5,0,5,0.09
2013-1-12,44,41,38,41,38,34,90,89,86,30.24,30.12,4,0,4,0.00
2013-1-13,52,46,42,49,44,39,91,91,89,30.16,29.98,7,0,7,0.00
2013-1-14,61,54,44,52,45,29,90,75,52,30.25,29.83,12,2,12,0.00
2013-1-15,44,40,35,29,27,24,69,60,56,30.32,30.22,6,0,6,0.00
2013-1-16,35,34,33,31,29,24,87,81,63,30.25,29.82,4,0,4,0.08
2013-1-17,42,35,30,33,28,17,89,77,57,30.09,29.83,7,1,7,0.16
2013-1-18,31,24,19,17,5,0,57,45,37,30.45,30.06,11,2,11,0.02
2013-1-19,48,34,23,30,20,8,71,57,44,30.39,29.90,22,2,22,0.00
2013-1-20,54,41,30,33,24,12,72,50,40,29.92,29.53,20,5,20,0.00
2013-1-21,31,26,23,18,11,6,76,52,41,30.10,29.79,11,2,11,0.00
2013-1-22,26,22,14,18,10,1,79,61,44,30.08,29.75,14,3,14,0.00
2013-1-23,18,13,8,1,-5,-8,56,46,35,30.14,30.05,12,3,12,0.00
2013-1-24,20,13,4,-3,-7,-10,52,41,32,30.21,30.05,20,4,20,0.00
2013-1-25,24,16,9,8,-4,-10,62,40,32,30.30,30.06,11,2,11,0.00
2013-1-26,25,18,13,9,4,-3,71,54,37,30.23,30.00,12,2,12,0.00
2013-1-27,30,21,14,6,2,-1,57,45,34,30.47,30.22,12,3,12,0.00
2013-1-28,32,26,19,24,12,1,81,58,37,30.45,30.01,4,0,4,0.00
2013-1-29,35,31,26,30,26,22,85,81,77,30.19,30.01,4,0,4,0.10
2013-1-30,59,48,34,56,45,30,91,88,85,30.16,29.47,15,1,15,0.13
2013-1-31,60,49,32,57,39,17,90,71,46,29.59,28.96,17,4,17,0.30
2013-2-1,35,30,23,18,11,6,57,46,38,30.08,29.59,14,4,14,0.00
2013-2-2,32,25,19,12,8,4,53,48,40,30.25,30.04,9,2,9,0.00
2013-2-3,28,26,23,21,18,12,78,72,52,30.05,29.73,7,1,7,0.00
2013-2-4,31,25,21,19,13,7,80,61,44,29.94,29.71,20,3,20,0.00
2013-2-5,30,26,22,21,13,7,79,59,48,30.03,29.93,7,1,7,0.00
2013-2-6,39,31,26,26,20,10,82,65,47,30.29,29.91,10,2,10,0.04
2013-2-7,31,25,18,14,7,4,58,46,37,30.53,30.29,11,1,11,0.00
2013-2-8,33,30,19,29,24,14,90,80,57,30.49,29.60,13,3,13,0.02
2013-2-9,24,19,15,21,16,12,88,87,85,30.17,29.56,21,4,21,0.00
2013-2-10,37,20,7,32,16,3,87,82,72,30.38,30.17,11,1,11,0.02
2013-2-11,38,29,15,36,25,10,90,85,80,30.35,29.60,5,0,5,0.23
2013-2-12,44,38,33,33,29,25,91,71,58,29.88,29.60,16,3,16,0.00
2013-2-13,44,34,25,28,25,19,79,70,54,29.87,29.69,5,0,5,0.00
2013-2-14,45,36,30,27,24,21,78,65,47,29.99,29.70,9,1,9,0.00
2013-2-15,52,38,26,37,30,20,86,73,54,30.00,29.89,10,0,10,0.00
2013-2-16,40,35,31,32,27,20,85,73,59,29.95,29.71,7,1,7,0.02
2013-2-17,32,22,18,20,11,3,79,63,49,29.71,29.38,23,6,23,0.04
2013-2-18,34,23,15,9,4,2,55,46,34,30.15,29.67,25,5,25,0.00
2013-2-19,48,36,22,38,25,5,88,63,45,30.17,29.57,5,0,5,0.41
2013-2-20,40,33,27,37,22,13,89,63,46,29.78,29.51,16,4,16,0.00
2013-2-21,35,28,25,16,14,12,64,55,46,30.17,29.77,16,4,16,0.00
2013-2-22,42,32,24,24,21,15,73,63,48,30.39,30.17,8,1,8,0.00
2013-2-23,40,35,30,30,28,23,86,76,68,30.34,29.92,10,1,10,0.10
2013-2-24,38,35,32,35,32,28,89,88,86,29.92,29.69,13,1,13,0.47
2013-2-25,41,36,31,32,30,27,88,79,67,30.25,29.89,4,0,4,0.12
2013-2-26,45,36,29,35,29,25,87,76,57,30.34,30.16,7,1,7,0.00
2013-2-27,41,40,38,38,36,31,91,88,75,30.16,29.55,13,3,13,0.16
2013-2-28,48,38,35,40,34,31,91,85,71,29.65,29.52,6,0,6,0.00
2013-3-1,42,38,34,34,31,28,87,75,65,29.68,29.53,9,1,9,0.00
2013-3-2,45,39,32,31,28,25,75,66,57,29.68,29.62,10,1,10,0.00
2013-3-3,45,37,33,33,28,25,80,71,62,29.65,29.56,8,2,8,0.00
2013-3-4,41,35,31,27,25,22,75,65,53,29.74,29.57,18,4,18,0.00
2013-3-5,45,37,32,32,27,22,80,66,56,30.07,29.74,13,2,13,0.00
2013-3-6,41,38,35,34,32,29,86,79,68,30.12,30.04,15,4,15,0.11
2013-3-7,36,33,32,31,29,28,86,83,73,30.08,29.99,12,2,12,0.14
2013-3-8,40,34,30,30,28,24,88,78,61,30.14,29.94,14,2,14,0.02
2013-3-9,47,37,29,32,26,22,82,66,54,30.35,30.14,10,1,10,0.02
2013-3-10,45,36,28,33,29,24,85,77,63,30.41,30.32,5,1,5,0.00
2013-3-11,54,43,35,41,36,30,84,75,59,30.33,30.15,6,1,6,0.00
2013-3-12,56,50,41,51,46,36,91,87,80,30.17,29.73,8,1,8,0.26
2013-3-13,54,46,36,50,33,22,91,62,39,29.79,29.69,14,3,14,0.00
2013-3-14,38,36,26,24,19,8,62,51,41,29.83,29.70,14,3,14,0.00
2013-3-15,43,36,21,25,17,5,65,47,32,29.87,29.62,18,3,18,0.00
2013-3-16,42,36,27,25,18,14,68,50,34,29.84,29.66,12,2,12,0.00
2013-3-17,41,34,24,16,11,6,65,39,31,30.32,29.89,13,3,13,0.00
2013-3-18,41,30,20,24,12,2,75,47,34,30.46,30.25,10,1,10,0.00
2013-3-19,36,34,30,33,30,24,88,86,75,30.25,29.60,19,3,19,0.62
2013-3-20,42,32,26,25,22,20,84,68,48,29.82,29.69,14,2,14,0.10
2013-3-21,40,32,23,27,23,18,82,70,52,29.83,29.61,6,0,6,0.00
2013-3-22,44,35,29,26,22,19,82,59,45,29.74,29.60,11,2,11,0.00
2013-3-23,45,36,28,24,21,18,70,56,40,29.78,29.62,20,4,20,0.00
2013-3-24,50,39,30,28,24,20,73,57,43,29.82,29.73,13,2,13,0.00
2013-3-25,47,39,32,35,30,26,78,69,59,29.78,29.53,10,2,10,0.00
2013-3-26,53,45,35,30,26,22,74,49,37,29.78,29.53,9,2,9,0.00
2013-3-27,55,45,31,31,26,21,66,49,37,29.86,29.74,10,2,10,0.00
2013-3-28,49,43,38,35,33,30,80,68,53,30.01,29.86,8,1,8,0.00
2013-3-29,59,47,34,38,33,27,80,60,41,30.04,29.95,58,1,58,0.00
2013-3-30,61,49,37,33,29,22,69,48,27,30.10,29.99,10,2,10,0.00
2013-3-31,62,47,31,38,29,22,71,53,30,30.12,29.75,9,1,9,0.00
2013-4-1,64,51,37,46,38,16,84,62,42,29.79,29.50,15,3,15,0.14
2013-4-2,44,36,31,18,15,12,51,43,33,29.94,29.79,20,4,20,0.02
2013-4-3,49,39,31,18,16,14,54,39,27,30.15,29.91,21,5,21,0.00
2013-4-4,59,44,30,25,19,14,54,39,25,30.30,30.05,10,2,10,0.00
2013-4-5,63,48,39,33,28,24,63,47,29,30.05,29.62,11,2,11,0.00
2013-4-6,50,40,32,24,15,11,51,37,23,30.34,29.87,18,3,18,0.00
2013-4-7,57,43,29,38,28,15,72,56,38,30.33,30.00,10,1,10,0.00
2013-4-8,69,53,42,43,40,36,83,63,37,30.10,29.95,12,1,12,0.00
2013-4-9,74,56,48,53,44,38,84,65,42,30.09,29.86,14,2,14,0.14
2013-4-10,66,54,48,49,44,40,84,71,56,30.02,29.87,7,1,7,0.19
2013-4-11,55,49,45,46,41,32,86,76,58,30.15,29.82,9,1,9,0.04
2013-4-12,45,40,38,37,34,31,88,80,60,30.17,29.79,19,2,19,0.43
2013-4-13,54,44,37,42,37,33,87,76,58,29.93,29.78,12,1,12,0.04
2013-4-14,56,47,39,40,34,28,84,63,41,30.22,29.91,14,2,14,0.00
2013-4-15,58,47,34,38,34,26,75,61,46,30.40,30.21,11,1,11,0.00
2013-4-16,68,54,38,49,41,32,82,64,47,30.41,30.05,12,2,12,0.00
2013-4-17,70,61,50,51,40,31,78,49,30,30.33,30.05,21,2,21,0.00
2013-4-18,65,53,41,42,36,31,69,52,36,30.43,30.15,12,2,12,0.00
2013-4-19,77,65,54,62,56,42,87,76,58,30.15,29.66,12,2,12,0.00
2013-4-20,67,56,46,62,43,26,87,64,42,30.21,29.60,14,3,14,0.49
2013-4-21,57,46,36,31,25,21,60,45,32,30.69,30.21,16,2,16,0.00
2013-4-22,54,44,35,35,31,26,75,60,36,30.77,30.60,15,2,15,0.00
2013-4-23,44,42,41,39,37,31,88,81,65,30.60,30.12,10,1,10,0.04
2013-4-24,76,56,43,55,46,39,89,72,45,30.12,29.79,9,1,9,0.02
2013-4-25,69,58,47,51,40,32,83,53,29,30.26,29.83,11,2,11,0.02
2013-4-26,60,52,43,40,36,31,74,56,43,30.44,30.26,14,2,14,0.00
2013-4-27,67,53,39,42,37,33,82,59,34,30.43,30.29,8,1,8,0.00
2013-4-28,70,57,41,43,38,31,77,50,35,30.35,30.22,10,1,10,0.00
2013-4-29,73,59,48,49,39,28,75,51,29,30.28,30.18,10,1,10,0.00
2013-4-30,71,56,45,38,33,27,65,44,22,30.38,30.25,7,1,7,0.00
2013-5-1,71,56,41,42,37,32,74,51,29,30.48,30.37,7,1,7,0.00
2013-5-2,79,57,45,48,41,36,78,58,30,30.49,30.36,10,1,10,0.00
2013-5-3,63,54,45,46,41,37,77,62,50,30.53,30.38,10,1,10,0.00
2013-5-4,60,51,42,45,40,35,82,65,52,30.38,30.32,11,1,11,0.00
2013-5-5,62,50,39,42,39,33,81,66,47,30.34,30.26,10,1,10,0.00
2013-5-6,67,52,40,50,43,34,84,72,53,30.30,30.15,8,1,8,0.00
2013-5-7,76,63,45,59,51,40,85,66,48,30.18,30.09,11,1,11,0.00
2013-5-8,73,62,55,63,56,49,86,78,68,30.21,30.06,10,1,10,0.24
2013-5-9,69,61,58,63,57,54,89,87,77,30.06,29.89,6,0,6,0.88
2013-5-10,79,66,57,62,58,54,90,75,54,29.96,29.90,58,1,58,0.02
2013-5-11,73,68,61,62,60,55,86,77,67,29.87,29.71,13,1,13,0.04
2013-5-12,73,64,54,59,49,33,88,59,42,29.81,29.56,12,2,12,0.08
2013-5-13,64,54,44,37,33,29,67,46,34,30.03,29.81,12,2,12,0.00
2013-5-14,61,53,44,36,33,31,64,47,37,30.05,29.97,8,1,8,0.00
2013-5-15,69,53,38,51,39,31,78,60,37,30.06,29.68,9,1,9,0.00
2013-5-16,84,74,49,50,45,38,86,37,26,29.81,29.62,16,2,16,0.00
2013-5-17,73,62,53,46,43,40,68,50,34,30.22,29.81,9,1,9,0.00
2013-5-18,72,61,47,50,46,40,78,59,37,30.31,30.22,9,0,9,0.00
2013-5-19,73,60,51,55,50,44,86,71,53,30.35,30.23,9,0,9,0.11
2013-5-20,85,69,57,66,60,53,89,74,52,30.23,29.90,8,1,8,0.04
2013-5-21,80,64,54,66,56,49,86,77,59,30.04,29.87,9,1,9,0.14
2013-5-22,68,58,53,60,53,48,88,82,71,30.06,29.89,8,1,8,0.10
2013-5-23,79,66,56,70,60,52,90,83,71,29.94,29.81,11,1,11,0.08
2013-5-24,73,65,52,67,61,49,90,86,76,29.83,29.66,6,0,6,0.82
2013-5-25,54,50,43,50,46,39,89,87,85,29.82,29.70,13,2,13,0.32
2013-5-26,61,51,41,45,41,37,87,70,49,30.09,29.71,18,3,18,0.07
2013-5-27,76,60,43,45,42,37,83,56,31,30.17,30.06,11,1,11,0.00
2013-5-28,74,62,47,52,46,41,80,59,38,30.24,30.15,7,1,7,0.00
2013-5-29,71,66,61,64,60,57,88,84,77,30.12,29.99,4,0,4,0.83
2013-5-30,91,76,62,70,66,59,91,73,49,30.08,29.99,10,1,10,0.00
2013-5-31,98,83,67,71,67,62,84,60,38,30.09,29.92,9,1,9,0.00
2013-6-1,98,84,72,70,66,62,72,57,39,29.97,29.84,11,1,11,0.00
2013-6-2,95,83,73,72,67,64,76,61,42,29.88,29.72,11,2,11,0.00
2013-6-3,82,74,67,70,64,48,85,72,50,29.85,29.75,6,1,6,0.29
2013-6-4,76,66,55,51,47,43,65,51,38,30.09,29.82,13,1,13,0.00
2013-6-5,79,67,53,53,49,45,75,54,37,30.19,30.09,6,0,6,0.00
2013-6-6,78,67,58,57,50,45,72,55,43,30.19,30.10,8,0,8,0.00
2013-6-7,63,58,55,56,53,51,89,84,66,30.12,29.82,6,0,6,2.12
2013-6-8,81,65,55,66,58,52,90,78,60,30.00,29.61,13,1,13,0.57
2013-6-9,84,72,58,60,57,53,86,63,43,30.15,30.00,9,1,9,0.00
2013-6-10,70,66,60,58,57,55,87,74,64,30.21,30.03,8,1,8,0.65
2013-6-11,65,60,57,59,56,54,90,86,80,30.03,29.57,13,1,13,1.12
2013-6-12,74,63,58,58,56,53,90,77,56,29.82,29.56,18,1,18,0.07
2013-6-13,69,60,54,57,54,49,87,80,63,29.82,29.68,4,0,4,0.55
2013-6-14,77,63,53,60,55,50,90,77,55,29.76,29.64,6,0,6,0.93
2013-6-15,84,70,58,55,51,48,81,54,31,29.94,29.76,10,1,10,0.00
2013-6-16,78,69,56,61,55,48,76,62,45,29.94,29.71,9,1,9,0.00
2013-6-17,90,73,60,65,61,55,84,67,39,29.91,29.77,13,1,13,0.43
2013-6-18,78,66,61,65,60,57,87,80,61,29.95,29.88,4,0,4,0.29
2013-6-19,78,67,58,57,54,50,89,65,42,30.15,29.91,8,0,8,0.02
2013-6-20,84,70,54,59,54,49,82,58,38,30.26,30.14,5,0,5,0.00
2013-6-21,89,75,62,66,59,53,73,59,37,30.25,30.18,8,1,8,0.00
2013-6-22,89,76,65,66,61,56,75,59,43,30.22,30.10,11,1,11,0.00
2013-6-23,95,80,69,74,65,56,70,61,48,30.16,29.99,9,1,9,0.00
2013-6-24,98,84,73,74,71,66,82,66,45,30.02,29.86,11,1,11,0.30
2013-6-25,96,83,72,74,70,66,85,65,44,29.92,29.71,12,1,12,0.00
2013-6-26,87,78,72,74,69,66,84,74,58,29.86,29.71,8,0,8,0.11
2013-6-27,74,68,65,66,63,60,89,84,75,29.88,29.76,6,0,6,0.02
2013-6-28,86,76,64,75,69,61,92,81,63,29.77,29.48,6,1,6,0.28
2013-6-29,89,79,73,73,70,67,87,75,54,29.73,29.52,9,1,9,0.00
2013-6-30,91,80,72,75,70,67,84,73,58,29.93,29.73,7,0,7,0.00
2013-7-1,83,79,75,76,73,70,85,82,77,30.08,29.94,4,0,4,0.12
2013-7-2,86,76,66,75,69,60,87,80,66,30.22,30.07,6,0,6,0.00
2013-7-3,92,78,65,75,69,60,87,74,56,30.20,30.12,13,2,13,0.00
2013-7-4,98,86,75,77,74,70,85,69,49,30.20,30.08,14,2,14,0.00
2013-7-5,100,88,79,78,74,71,78,64,46,30.16,30.02,10,2,10,0.00
2013-7-6,96,87,79,75,72,65,79,62,46,30.07,29.96,14,1,14,0.00
2013-7-7,98,82,73,77,70,64,79,67,49,30.02,29.89,7,0,7,0.02
2013-7-8,87,80,73,75,71,64,85,76,60,30.07,29.90,8,0,8,0.00
2013-7-9,76,72,68,68,65,63,84,79,75,30.11,30.04,4,0,4,0.00
2013-7-10,83,71,68,75,66,63,90,85,75,30.08,29.91,7,0,7,0.00
2013-7-26,69,65,62,65,62,59,91,90,88,30.03,29.93,6,1,6,0.53
2013-7-27,88,74,61,70,64,58,91,73,49,30.05,29.98,4,1,4,0.00
2013-7-28,84,74,70,72,67,63,87,79,68,30.01,29.97,2,0,2,0.00
2013-7-29,88,76,70,73,68,65,87,78,60,30.03,29.97,1,0,1,0.24
2013-7-30,86,75,64,67,62,60,88,68,45,30.09,30.02,5,1,5,0.00
2013-7-31,84,77,67,64,62,60,78,61,46,30.13,30.04,3,0,3,0.00
2013-8-1,87,74,65,66,63,60,84,69,49,30.05,29.88,3,1,3,0.00
2013-8-2,70,70,69,62,62,62,76,76,76,29.88,29.87,0,0,0,0.00
2013-10-3,80,66,57,56,52,49,81,64,38,30.08,29.96,6,1,6,0.00
2013-10-4,67,60,54,58,53,48,84,77,71,30.08,30.03,0,0,0,0.00
2013-10-5,69,63,60,58,56,55,87,78,64,30.13,30.06,1,0,1,0.00
2013-10-6,62,58,56,56,54,53,91,87,77,30.22,30.11,1,0,1,0.00
2013-10-7,77,67,58,69,63,56,92,86,76,30.12,29.82,7,1,7,0.00
2013-10-8,67,59,50,56,46,41,76,64,45,30.36,29.91,4,1,4,0.00
2013-10-9,62,51,46,47,43,40,81,76,56,30.46,30.37,4,0,4,0.00
2013-10-10,62,53,45,53,48,41,87,81,71,30.37,30.17,6,0,6,0.00
2013-10-11,70,55,51,56,50,46,88,82,56,30.18,30.10,4,0,4,0.00
2013-10-12,61,55,50,56,50,45,89,83,77,30.40,30.15,8,0,8,0.00
2013-10-13,62,53,45,50,46,40,87,76,59,30.45,30.38,7,0,7,0.00
2013-10-14,66,50,38,48,42,34,87,76,46,30.41,30.25,4,0,4,0.00
2013-10-15,67,57,48,55,50,44,87,78,64,30.27,30.19,6,0,6,0.00
2013-10-16,62,56,50,55,51,46,89,83,77,30.18,29.92,3,0,3,0.00
2013-10-17,73,62,53,62,56,50,90,82,65,29.93,29.73,6,0,6,0.00
2013-10-18,69,61,50,60,52,42,90,72,49,29.92,29.62,14,1,14,0.04
2013-10-19,67,54,42,47,43,37,84,67,47,29.98,29.76,6,0,6,0.00
2013-10-20,63,54,43,50,41,34,87,64,41,30.02,29.70,12,1,12,0.00
2013-10-21,67,52,39,46,40,33,82,65,45,30.12,30.00,8,0,8,0.00
2013-10-22,66,55,44,52,45,38,86,71,56,30.00,29.70,6,1,6,0.00
2013-10-23,51,45,39,38,35,32,80,69,54,29.81,29.60,4,0,4,0.00
2013-10-24,54,45,39,36,30,27,72,57,41,29.89,29.65,13,1,13,0.00
2013-10-25,50,41,33,34,29,25,79,63,47,30.16,29.89,12,1,12,0.00
2013-10-26,56,43,31,36,30,25,81,62,40,30.16,29.88,14,1,14,0.00
2013-10-27,54,50,44,40,36,30,82,60,46,30.04,29.84,13,2,13,0.03
2013-10-28,58,50,35,37,33,26,80,54,44,30.36,30.09,13,2,13,0.00
2013-10-29,49,40,34,32,27,22,78,61,44,30.45,30.35,8,0,8,0.00
2013-10-30,50,41,34,42,35,28,84,80,71,30.37,30.20,2,0,2,0.04
2013-10-31,61,54,35,58,50,31,90,88,85,30.22,29.80,7,0,7,0.06
2013-11-1,70,65,60,63,60,55,91,83,65,29.80,29.48,14,2,14,0.06
2013-11-2,64,57,54,46,44,43,69,63,51,29.74,29.61,5,0,5,0.00
2013-11-3,49,43,34,42,31,19,78,63,49,30.42,29.82,8,1,8,0.02
2013-11-4,44,34,28,22,20,18,74,57,40,30.71,30.42,8,0,8,0.00
2013-11-5,50,36,28,33,27,20,75,69,50,30.72,30.52,9,0,9,0.00
2013-11-6,61,50,38,48,40,31,81,71,54,30.52,30.05,8,1,8,0.00
2013-11-7,66,55,42,58,49,34,88,81,70,30.05,29.68,13,1,13,0.20
2013-11-8,49,41,34,35,29,23,77,63,52,30.11,29.82,15,2,15,0.00
2013-11-9,46,40,33,29,25,22,65,55,44,30.22,30.05,12,1,12,0.00
2013-11-10,56,47,42,45,36,29,85,68,55,30.06,29.74,9,1,9,0.04
2013-11-11,52,46,39,33,30,27,66,54,42,30.10,29.85,11,2,11,0.00
2013-11-12,48,37,29,38,26,16,80,64,54,30.19,29.89,14,2,14,0.11
2013-11-13,38,29,25,19,16,15,66,59,46,30.29,30.18,14,2,14,0.00
2013-11-16,59,45,37,32,30,28,71,58,35,30.32,30.20,2,0,2,0.00
2013-11-17,56,45,34,48,38,28,87,78,73,30.32,30.03,2,0,2,0.04
2013-11-18,58,58,58,55,55,55,91,91,91,29.71,29.71,1,1,1,0.00
2013-11-22,46,45,45,42,42,42,88,88,88,29.94,29.82,0,0,0,0.00
2013-11-23,47,44,31,44,32,17,89,65,42,29.91,29.78,17,4,17,0.00
2013-11-24,31,26,24,17,8,0,60,47,33,30.05,29.78,22,6,23,0.00
2013-11-25,32,28,18,16,7,-12,53,41,14,30.37,30.27,10,2,10,0.00
2013-11-26,43,37,31,39,22,16,86,56,49,30.34,30.04,9,1,9,0.12
2013-11-27,62,53,42,59,50,38,92,90,84,30.04,29.21,17,2,17,1.51
2013-11-28,36,31,26,28,17,11,73,57,47,30.43,29.66,23,4,23,0.00
2013-11-29,34,27,22,17,13,8,70,55,44,30.75,30.42,9,1,9,0.00
2013-11-30,33,26,18,24,15,8,70,63,54,30.80,30.45,5,0,5,0.00
2013-12-1,40,36,33,36,32,24,89,83,69,30.45,30.00,5,0,5,0.16
2013-12-2,40,38,37,38,35,18,90,89,44,30.01,29.92,6,0,6,0.00
2013-12-3,47,41,34,39,35,29,89,80,66,29.95,29.85,5,1,5,0.00
2013-12-4,44,36,30,30,28,26,86,75,58,30.20,29.95,10,1,10,0.00
2013-12-5,50,42,31,47,38,26,90,84,81,30.22,29.91,5,0,5,0.00
2013-12-6,54,52,49,52,49,43,92,89,80,29.98,29.85,10,1,10,0.02
2013-12-7,39,39,39,27,27,27,61,60,60,30.24,30.23,8,7,8,0.00
2013-12-8,32,30,22,19,18,16,75,62,57,30.58,30.49,3,0,3,0.00
2013-12-9,38,31,27,35,25,17,89,79,59,30.50,30.02,7,0,7,0.32
2013-12-12,23,17,16,9,6,4,63,61,52,30.19,30.06,2,0,2,0.00
2013-12-13,27,20,17,14,9,6,64,62,55,30.38,29.99,10,2,10,0.00
2013-12-14,29,22,16,26,14,2,87,73,51,30.58,30.14,8,1,8,2.50
2013-12-15,35,31,25,32,28,21,90,88,84,30.14,29.41,10,1,10,0.02
2013-12-16,29,25,19,22,15,8,81,66,53,30.20,29.75,0,0,0,0.00
2013-12-17,21,16,7,16,8,0,83,73,61,30.29,29.95,5,0,5,0.00
2013-12-18,34,25,18,23,18,13,82,74,63,30.07,29.88,8,2,8,0.00
2013-12-19,41,32,25,28,24,18,80,72,59,30.11,29.96,10,1,10,0.06
2013-12-20,50,38,30,38,31,25,84,76,63,30.12,29.91,1,0,1,0.08
2013-12-21,53,47,37,46,41,32,87,81,74,29.95,29.86,6,0,6,2.51
2013-12-22,45,39,35,42,36,32,90,89,85,30.04,29.82,3,0,3,0.00
2013-12-23,35,34,33,33,32,31,91,90,90,30.10,29.96,4,0,4,0.59
2013-12-24,35,32,28,24,21,16,68,63,57,30.20,30.05,12,1,12,0.00
2013-12-25,28,20,15,16,8,3,70,58,49,30.55,30.20,16,2,16,0.00
2013-12-26,34,27,16,30,21,8,86,79,70,30.51,30.08,6,0,6,0.00
2013-12-27,34,27,20,24,20,16,85,75,63,30.27,30.19,9,1,9,0.02
2013-12-28,45,32,21,31,24,17,84,73,55,30.22,29.98,10,1,10,0.00
2013-12-29,41,35,28,38,31,23,90,84,73,30.04,29.40,14,1,14,1.08
2013-12-30,41,33,21,36,24,10,90,71,51,30.17,29.51,16,2,16,0.00
2013-12-31,25,20,16,14,8,1,70,58,48,30.20,30.03,7,1,7,0.00
2014-1-1,28,22,15,13,10,6,69,59,49,30.40,30.19,14,1,14,0.00
2014-1-2,22,14,3,13,8,-3,78,76,64,30.38,29.87,14,2,14,0.00